createdAt,value
2022-09-24T00:01:41.065Z,5.68
2022-09-24T00:04:14.352Z,5.75
2022-09-24T00:06:45.033Z,4.88
2022-09-24T00:09:15.162Z,4.85
2022-09-24T00:11:45.871Z,3.80
2022-09-24T00:14:13.744Z,3.42
2022-09-24T00:16:42.585Z,3.13
2022-09-24T00:19:10.568Z,5.43
2022-09-24T00:21:38.729Z,3.38
2022-09-24T00:24:32.902Z,3.47
2022-09-24T00:27:00.554Z,4.07
2022-09-24T00:29:27.945Z,3.53
2022-09-24T00:31:55.435Z,3.22
2022-09-24T00:34:22.747Z,4.82
2022-09-24T00:36:50.050Z,4.32
2022-09-24T00:39:17.424Z,3.53
2022-09-24T00:41:49.032Z,3.35
2022-09-24T00:44:41.166Z,4.40
2022-09-24T00:47:28.824Z,5.28
2022-09-24T00:50:06.357Z,7.13
2022-09-24T00:52:44.247Z,4.03
2022-09-24T00:55:12.968Z,2.97
2022-09-24T00:57:41.858Z,4.15
2022-09-24T01:00:10.445Z,5.00
2022-09-24T01:02:42.282Z,7.65
2022-09-24T01:05:10.291Z,2.88
2022-09-24T01:07:37.758Z,4.13
2022-09-24T01:10:05.893Z,4.45
2022-09-24T01:12:48.473Z,3.08
2022-09-24T01:15:19.724Z,3.20
2022-09-24T01:17:54.974Z,3.63
2022-09-24T01:20:38.678Z,3.47
2022-09-24T01:23:28.134Z,4.30
2022-09-24T01:26:04.425Z,3.70
2022-09-24T01:28:43.857Z,3.95
2022-09-24T01:31:18.411Z,4.13
2022-09-24T01:33:49.665Z,3.58
2022-09-24T01:36:18.253Z,3.03
2022-09-24T01:38:50.082Z,3.63
2022-09-24T01:41:19.039Z,4.13
2022-09-24T01:43:46.367Z,5.88
2022-09-24T01:46:16.898Z,3.30
2022-09-24T01:48:44.239Z,4.18
2022-09-24T01:51:22.990Z,3.78
2022-09-24T01:53:52.634Z,2.85
2022-09-24T01:56:30.657Z,3.85
2022-09-24T01:59:23.785Z,3.95
2022-09-24T02:02:23.107Z,3.63
2022-09-24T02:04:57.000Z,3.03
2022-09-24T02:07:30.437Z,4.88
2022-09-24T02:09:57.743Z,3.70
2022-09-24T02:12:39.910Z,4.60
2022-09-24T02:15:13.253Z,3.28
2022-09-24T02:17:44.666Z,3.80
2022-09-24T02:20:19.912Z,3.53
2022-09-24T02:22:49.442Z,3.10
2022-09-24T02:25:21.059Z,3.03
2022-09-24T02:27:48.313Z,2.97
2022-09-24T02:30:15.761Z,2.92
2022-09-24T02:32:44.573Z,4.80
2022-09-24T02:35:12.813Z,3.08
2022-09-24T02:37:44.553Z,3.08
2022-09-24T02:40:14.403Z,4.82
2022-09-24T02:42:43.362Z,3.42
2022-09-24T02:45:11.789Z,3.47
2022-09-24T02:47:39.225Z,3.22
2022-09-24T02:50:07.185Z,3.70
2022-09-24T02:52:34.619Z,4.03
2022-09-24T02:55:02.050Z,2.85
2022-09-24T02:57:29.303Z,3.22
2022-09-24T02:59:56.778Z,3.15
2022-09-24T03:02:24.134Z,3.90
2022-09-24T03:04:51.920Z,5.75
2022-09-24T03:07:21.821Z,3.75
2022-09-24T03:09:49.051Z,3.03
2022-09-24T03:12:16.310Z,2.95
2022-09-24T03:14:43.558Z,2.65
2022-09-24T03:17:10.781Z,3.58
2022-09-24T03:19:38.098Z,4.00
2022-09-24T03:22:05.370Z,3.60
2022-09-24T03:24:32.607Z,3.45
2022-09-24T03:26:59.922Z,3.75
2022-09-24T03:29:45.819Z,2.65
2022-09-24T03:32:13.114Z,3.08
2022-09-24T03:34:40.404Z,3.03
2022-09-24T03:37:08.642Z,2.80
2022-09-24T03:39:35.878Z,2.88
2022-09-24T03:42:03.102Z,3.33
2022-09-24T03:44:30.568Z,3.03
2022-09-24T03:46:57.859Z,2.97
2022-09-24T03:49:25.905Z,4.72
2022-09-24T03:51:53.144Z,6.78
2022-09-24T03:54:20.440Z,3.20
2022-09-24T03:56:47.699Z,5.18
2022-09-24T03:59:14.917Z,4.30
2022-09-24T04:01:42.177Z,3.60
2022-09-24T04:04:09.509Z,2.80
2022-09-24T04:06:36.808Z,3.22
2022-09-24T04:09:04.146Z,3.75
2022-09-24T04:11:32.236Z,4.85
2022-09-24T04:13:59.452Z,3.60
2022-09-24T04:16:26.784Z,3.25
2022-09-24T04:18:55.495Z,3.33
2022-09-24T04:21:22.949Z,3.33
2022-09-24T04:23:50.174Z,5.95
2022-09-24T04:26:17.481Z,3.95
2022-09-24T04:28:44.779Z,3.03
2022-09-24T04:31:12.077Z,4.13
2022-09-24T04:33:40.748Z,4.22
2022-09-24T04:36:08.099Z,2.92
2022-09-24T04:38:35.528Z,3.08
2022-09-24T04:41:07.498Z,4.43
2022-09-24T04:43:36.951Z,3.50
2022-09-24T04:46:05.556Z,4.07
2022-09-24T04:48:32.849Z,3.13
2022-09-24T04:51:00.045Z,3.22
2022-09-24T04:53:27.691Z,3.08
2022-09-24T04:55:54.981Z,3.90
2022-09-24T04:58:22.225Z,4.05
2022-09-24T05:00:51.441Z,6.65
2022-09-24T05:03:21.214Z,3.35
2022-09-24T05:05:50.212Z,3.03
2022-09-24T05:08:17.719Z,3.08
2022-09-24T05:10:44.954Z,3.05
2022-09-24T05:13:12.141Z,4.13
2022-09-24T05:15:42.993Z,3.63
2022-09-24T05:18:10.653Z,3.65
2022-09-24T05:20:37.889Z,3.83
2022-09-24T05:23:05.398Z,2.90
2022-09-24T05:25:32.630Z,2.78
2022-09-24T05:27:59.909Z,3.45
2022-09-24T05:30:27.308Z,3.22
2022-09-24T05:32:54.709Z,4.18
2022-09-24T05:35:23.905Z,3.28
2022-09-24T05:37:53.581Z,3.13
2022-09-24T05:40:40.504Z,2.92
2022-09-24T05:43:08.318Z,3.25
2022-09-24T05:45:35.666Z,2.90
2022-09-24T05:48:03.013Z,4.68
2022-09-24T05:50:30.976Z,4.25
2022-09-24T05:52:58.535Z,3.25
2022-09-24T05:55:28.820Z,3.65
2022-09-24T05:58:11.047Z,2.83
2022-09-24T06:00:38.339Z,3.13
2022-09-24T06:03:09.232Z,4.15
2022-09-24T06:05:36.729Z,3.10
2022-09-24T06:08:05.524Z,4.35
2022-09-24T06:10:32.866Z,2.95
2022-09-24T06:13:00.100Z,3.60
2022-09-24T06:15:27.548Z,5.03
2022-09-24T06:17:55.341Z,5.10
2022-09-24T06:20:23.778Z,3.88
2022-09-24T06:22:51.202Z,3.00
2022-09-24T06:25:18.554Z,5.05
2022-09-24T06:27:45.818Z,3.05
2022-09-24T06:30:13.150Z,3.78
2022-09-24T06:32:40.374Z,8.25
2022-09-24T06:35:08.081Z,3.40
2022-09-24T06:37:35.300Z,2.90
2022-09-24T06:40:04.060Z,5.05
2022-09-24T06:42:31.343Z,2.60
2022-09-24T06:44:58.834Z,2.72
2022-09-24T06:47:26.642Z,3.25
2022-09-24T06:49:53.878Z,2.92
2022-09-24T06:52:23.433Z,4.28
2022-09-24T06:54:50.709Z,3.30
2022-09-24T06:57:18.136Z,2.60
2022-09-24T06:59:45.880Z,3.35
2022-09-24T07:02:13.245Z,3.60
2022-09-24T07:04:40.518Z,2.65
2022-09-24T07:07:26.037Z,2.63
2022-09-24T07:09:53.400Z,4.55
2022-09-24T07:12:20.705Z,3.53
2022-09-24T07:14:47.894Z,4.20
2022-09-24T07:17:15.367Z,3.03
2022-09-24T07:19:43.041Z,4.05
2022-09-24T07:22:10.289Z,3.58
2022-09-24T07:24:37.562Z,3.28
2022-09-24T07:27:06.119Z,3.50
2022-09-24T07:29:33.636Z,4.53
2022-09-24T07:32:01.889Z,3.55
2022-09-24T07:34:29.718Z,3.42
2022-09-24T07:36:57.265Z,5.18
2022-09-24T07:39:25.742Z,2.45
2022-09-24T07:41:53.208Z,3.22
2022-09-24T07:44:20.921Z,3.53
2022-09-24T07:46:48.859Z,3.75
2022-09-24T07:49:16.383Z,3.88
2022-09-24T07:51:44.225Z,2.83
2022-09-24T07:54:15.089Z,4.10
2022-09-24T07:56:44.393Z,2.95
2022-09-24T07:59:11.647Z,3.08
2022-09-24T08:01:39.806Z,3.60
2022-09-24T08:04:07.425Z,6.50
2022-09-24T08:06:39.511Z,4.72
2022-09-24T08:09:08.154Z,7.20
2022-09-24T08:11:35.740Z,5.60
2022-09-24T08:14:03.350Z,5.10
2022-09-24T08:16:30.653Z,5.10
2022-09-24T08:18:57.903Z,3.90
2022-09-24T08:21:25.162Z,7.30
2022-09-24T08:23:52.457Z,7.90
2022-09-24T08:26:19.752Z,4.45
2022-09-24T08:28:49.253Z,3.63
2022-09-24T08:31:16.936Z,3.53
2022-09-24T08:33:46.356Z,4.82
2022-09-24T08:36:13.669Z,6.82
2022-09-24T08:38:40.923Z,4.05
2022-09-24T08:41:14.397Z,3.72
2022-09-24T08:44:00.052Z,3.95
2022-09-24T08:46:48.969Z,3.42
2022-09-24T08:49:45.774Z,4.63
2022-09-24T08:52:18.688Z,6.35
2022-09-24T08:54:47.482Z,4.15
2022-09-24T08:57:18.230Z,3.50
2022-09-24T08:59:51.677Z,4.72
2022-09-24T09:02:37.371Z,4.75
2022-09-24T09:05:34.338Z,3.97
2022-09-24T09:08:41.440Z,3.83
2022-09-24T09:11:36.955Z,7.85
2022-09-24T09:14:39.652Z,7.07
2022-09-24T09:17:21.325Z,8.93
2022-09-24T09:19:57.217Z,3.70
2022-09-24T09:22:31.127Z,4.35
2022-09-24T09:25:15.323Z,5.32
2022-09-24T09:27:42.665Z,4.45
2022-09-24T09:30:16.199Z,8.75
2022-09-24T09:33:02.266Z,6.75
2022-09-24T09:35:35.813Z,6.03
2022-09-24T09:38:19.645Z,8.15
2022-09-24T09:40:52.915Z,4.45
2022-09-24T09:43:20.550Z,8.93
2022-09-24T09:46:13.054Z,4.38
2022-09-24T09:48:54.343Z,6.15
2022-09-24T09:51:26.129Z,4.72
2022-09-24T09:54:01.979Z,4.05
2022-09-24T09:56:31.971Z,4.20
2022-09-24T09:59:07.240Z,3.90
2022-09-24T10:01:37.130Z,6.10
2022-09-24T10:04:05.166Z,6.78
2022-09-24T10:06:35.231Z,6.10
2022-09-24T10:09:20.941Z,5.18
2022-09-24T10:11:48.659Z,3.88
2022-09-24T10:14:19.224Z,4.72
2022-09-24T10:16:52.198Z,3.40
2022-09-24T10:21:49.375Z,3.58
2022-09-24T10:24:22.739Z,6.75
2022-09-24T10:26:50.602Z,5.03
2022-09-24T10:29:48.649Z,4.38
2022-09-24T10:32:21.829Z,5.22
2022-09-24T10:35:05.979Z,4.25
2022-09-24T10:37:33.276Z,3.13
2022-09-24T10:40:03.408Z,3.13
2022-09-24T10:42:31.154Z,4.68
2022-09-24T10:45:04.727Z,3.92
2022-09-24T10:48:08.172Z,3.28
2022-09-24T10:50:43.142Z,3.05
2022-09-24T10:53:19.352Z,3.47
2022-09-24T10:56:17.027Z,5.10
2022-09-24T10:59:16.156Z,4.00
2022-09-24T11:01:49.220Z,3.53
2022-09-24T11:04:22.632Z,2.97
2022-09-24T11:07:18.007Z,4.00
2022-09-24T11:10:04.178Z,3.22
2022-09-24T11:12:52.818Z,3.65
2022-09-24T11:15:29.281Z,5.13
2022-09-24T11:18:12.634Z,4.93
2022-09-24T11:20:47.158Z,4.95
2022-09-24T11:23:26.273Z,2.53
2022-09-24T11:26:21.311Z,3.65
2022-09-24T11:29:12.283Z,3.67
2022-09-24T11:31:42.645Z,2.97
2022-09-24T11:34:29.032Z,4.28
2022-09-24T11:37:21.439Z,3.45
2022-09-24T11:40:24.094Z,3.22
2022-09-24T11:42:57.922Z,5.72
2022-09-24T11:45:37.268Z,3.38
2022-09-24T11:48:31.442Z,3.75
2022-09-24T11:51:32.940Z,3.83
2022-09-24T11:54:03.948Z,2.60
2022-09-24T11:56:46.280Z,5.43
2022-09-24T11:59:19.303Z,3.83
2022-09-24T12:04:26.370Z,4.28
2022-09-24T12:07:09.209Z,3.08
2022-09-24T12:10:25.022Z,3.97
2022-09-24T12:12:58.083Z,3.00
2022-09-24T12:15:30.871Z,3.70
2022-09-24T12:18:04.318Z,3.72
2022-09-24T12:20:34.840Z,3.22
2022-09-24T12:23:09.597Z,2.75
2022-09-24T12:25:46.751Z,2.80
2022-09-24T12:28:39.455Z,3.17
2022-09-24T12:32:00.001Z,3.90
2022-09-24T12:34:57.788Z,3.40
2022-09-24T12:37:31.933Z,3.00
2022-09-24T12:40:20.400Z,3.35
2022-09-24T12:42:54.260Z,3.13
2022-09-24T12:45:22.990Z,3.95
2022-09-24T12:47:59.981Z,3.22
2022-09-24T12:50:30.920Z,3.65
2022-09-24T12:52:58.693Z,3.00
2022-09-24T12:55:31.851Z,2.90
2022-09-24T12:58:03.423Z,4.85
2022-09-24T13:00:34.025Z,3.00
2022-09-24T13:03:03.113Z,3.63
2022-09-24T13:05:47.125Z,3.33
2022-09-24T13:08:17.179Z,3.08
2022-09-24T13:11:05.672Z,3.38
2022-09-24T13:13:41.036Z,2.67
2022-09-24T13:16:21.237Z,3.25
2022-09-24T13:19:02.317Z,2.88
2022-09-24T13:21:31.151Z,5.15
2022-09-24T13:23:58.747Z,4.32
2022-09-24T13:26:35.917Z,2.60
2022-09-24T13:29:25.873Z,2.67
2022-09-24T13:32:03.070Z,2.85
2022-09-24T13:34:32.272Z,2.95
2022-09-24T13:37:02.499Z,4.47
2022-09-24T13:39:56.220Z,3.75
2022-09-24T13:42:38.381Z,3.38
2022-09-24T13:45:11.853Z,3.10
2022-09-24T13:47:47.847Z,3.20
2022-09-24T13:50:21.098Z,2.85
2022-09-24T13:52:48.299Z,3.15
2022-09-24T13:55:22.219Z,2.70
2022-09-24T13:57:49.612Z,2.78
2022-09-24T14:00:19.918Z,3.75
2022-09-24T14:03:17.768Z,2.85
2022-09-24T14:05:45.577Z,2.92
2022-09-24T14:08:15.635Z,3.40
2022-09-24T14:10:43.495Z,3.40
2022-09-24T14:13:13.841Z,4.57
2022-09-24T14:15:57.577Z,2.85
2022-09-24T14:18:29.018Z,3.83
2022-09-24T14:21:23.702Z,2.90
2022-09-24T14:23:57.410Z,3.15
2022-09-24T14:26:31.103Z,4.07
2022-09-24T14:29:01.189Z,3.42
2022-09-24T14:31:28.629Z,2.95
2022-09-24T14:33:56.345Z,3.63
2022-09-24T14:36:29.102Z,3.22
2022-09-24T14:39:05.665Z,3.08
2022-09-24T14:41:35.381Z,3.13
2022-09-24T14:44:27.102Z,3.38
2022-09-24T14:46:58.210Z,2.70
2022-09-24T14:49:45.015Z,3.13
2022-09-24T14:52:27.214Z,4.18
2022-09-24T14:55:13.633Z,4.25
2022-09-24T14:57:47.429Z,4.57
2022-09-24T15:00:27.942Z,3.00
2022-09-24T15:03:07.279Z,2.90
2022-09-24T15:05:35.125Z,3.30
2022-09-24T15:08:13.413Z,3.30
2022-09-24T15:10:40.848Z,2.88
2022-09-24T15:13:15.683Z,2.67
2022-09-24T15:15:43.106Z,3.00
2022-09-24T15:18:11.357Z,2.80
2022-09-24T15:20:38.932Z,2.72
2022-09-24T15:23:06.158Z,3.38
2022-09-24T15:25:33.500Z,3.17
2022-09-24T15:28:01.152Z,2.85
2022-09-24T15:30:28.478Z,3.45
2022-09-24T15:32:56.327Z,3.25
2022-09-24T15:35:24.113Z,3.35
2022-09-24T15:37:51.556Z,5.78
2022-09-24T15:40:23.121Z,5.32
2022-09-24T15:42:51.422Z,5.75
2022-09-24T15:45:24.075Z,6.13
2022-09-24T15:47:52.614Z,5.07
2022-09-24T15:50:22.503Z,6.75
2022-09-24T15:52:56.130Z,7.03
2022-09-24T15:55:24.266Z,5.50
2022-09-24T15:57:51.667Z,7.28
2022-09-24T16:00:22.203Z,7.38
2022-09-24T16:02:52.646Z,7.35
2022-09-24T16:09:46.415Z,8.13
2022-09-24T16:12:18.764Z,6.55
2022-09-24T16:14:46.958Z,7.78
2022-09-24T16:17:14.229Z,7.20
2022-09-24T16:19:41.536Z,8.18
2022-09-24T16:22:08.856Z,8.50
2022-09-24T16:24:36.145Z,7.93
2022-09-24T16:27:03.650Z,8.73
2022-09-24T16:29:30.859Z,8.70
2022-09-24T16:31:58.409Z,7.35
2022-09-24T16:34:26.425Z,9.10
2022-09-24T16:36:53.795Z,8.90
2022-09-24T16:39:21.203Z,8.38
2022-09-24T16:41:49.570Z,8.63
2022-09-24T16:44:17.286Z,8.63
2022-09-24T16:46:45.111Z,7.78
2022-09-24T16:49:12.801Z,7.72
2022-09-24T16:51:40.346Z,8.50
2022-09-24T16:54:07.880Z,9.10
2022-09-24T16:56:35.135Z,8.02
2022-09-24T16:59:02.393Z,9.23
2022-09-24T17:01:29.703Z,9.07
2022-09-24T17:03:58.753Z,9.10
2022-09-24T17:06:28.980Z,9.95
2022-09-24T17:09:15.464Z,9.77
2022-09-24T17:11:42.894Z,9.68
2022-09-24T17:14:13.656Z,7.70
2022-09-24T17:16:42.646Z,8.05
2022-09-24T17:19:11.858Z,6.18
2022-09-24T17:21:41.198Z,7.70
2022-09-24T17:24:09.588Z,7.65
2022-09-24T17:26:37.619Z,8.57
2022-09-24T17:29:05.339Z,6.43
2022-09-24T17:31:32.815Z,4.82
2022-09-24T17:34:03.546Z,6.13
2022-09-24T17:36:33.252Z,6.25
2022-09-24T17:39:03.730Z,5.95
2022-09-24T17:41:31.553Z,5.30
2022-09-24T17:43:59.628Z,8.27
2022-09-24T17:46:30.434Z,4.97
2022-09-24T17:49:01.057Z,7.22
2022-09-24T17:51:33.917Z,6.45
2022-09-24T17:54:06.791Z,7.22
2022-09-24T17:56:38.945Z,7.82
2022-09-24T17:59:09.498Z,8.32
2022-09-24T18:01:41.005Z,5.28
2022-09-24T18:04:19.042Z,9.32
2022-09-24T18:06:48.833Z,4.80
2022-09-24T18:09:20.353Z,5.03
2022-09-24T18:11:53.094Z,5.47
2022-09-24T18:14:24.502Z,5.63
2022-09-24T18:16:53.863Z,6.00
2022-09-24T18:19:22.157Z,6.57
2022-09-24T18:21:49.746Z,6.45
2022-09-24T18:24:19.796Z,5.60
2022-09-24T18:26:51.694Z,4.80
2022-09-24T18:29:21.523Z,4.83
2022-09-24T18:31:55.534Z,5.97
2022-09-24T18:34:23.995Z,5.45
2022-09-24T18:36:54.670Z,6.70
2022-09-24T18:39:25.261Z,4.65
2022-09-24T18:41:53.266Z,4.85
2022-09-24T18:44:22.541Z,5.60
2022-09-24T18:46:51.389Z,7.13
2022-09-24T18:49:19.923Z,5.10
2022-09-24T18:51:52.588Z,5.65
2022-09-24T18:54:21.571Z,5.15
2022-09-24T18:56:49.994Z,6.35
2022-09-24T18:59:19.937Z,4.90
2022-09-24T19:01:48.966Z,5.03
2022-09-24T19:04:20.116Z,6.15
2022-09-24T19:06:49.772Z,4.57
2022-09-24T19:09:22.090Z,4.57
2022-09-24T19:11:49.819Z,4.38
2022-09-24T19:14:20.509Z,5.63
2022-09-24T19:16:48.998Z,7.20
2022-09-24T19:19:18.000Z,5.35
2022-09-24T19:21:45.806Z,4.68
2022-09-24T19:24:14.262Z,5.25
2022-09-24T19:26:48.621Z,5.00
2022-09-24T19:29:15.895Z,4.32
2022-09-24T19:31:49.584Z,4.57
2022-09-24T19:34:18.745Z,5.30
2022-09-24T19:36:46.643Z,4.72
2022-09-24T19:39:20.690Z,6.00
2022-09-24T19:41:57.021Z,4.30
2022-09-24T19:44:24.262Z,6.13
2022-09-24T19:46:52.146Z,4.32
2022-09-24T19:49:20.761Z,5.15
2022-09-24T19:51:49.797Z,6.47
2022-09-24T19:54:19.578Z,4.40
2022-09-24T19:56:50.045Z,6.75
2022-09-24T19:59:21.750Z,5.93
2022-09-24T20:01:52.328Z,6.28
2022-09-24T20:04:22.327Z,5.03
2022-09-24T20:06:49.535Z,4.57
2022-09-24T20:09:17.341Z,4.88
2022-09-24T20:11:45.205Z,6.07
2022-09-24T20:14:13.775Z,4.38
2022-09-24T20:16:46.077Z,5.32
2022-09-24T20:19:14.765Z,5.22
2022-09-24T20:21:41.978Z,5.68
2022-09-24T20:24:12.858Z,4.82
2022-09-24T20:26:58.558Z,4.45
2022-09-24T20:29:26.863Z,5.95
2022-09-24T20:31:57.083Z,5.15
2022-09-24T20:34:34.979Z,4.78
2022-09-24T20:37:04.336Z,4.80
2022-09-24T20:39:32.480Z,3.90
2022-09-24T20:42:03.901Z,5.20
2022-09-24T20:44:36.427Z,4.90
2022-09-24T20:47:05.696Z,5.80
2022-09-24T20:49:36.427Z,5.05
2022-09-24T20:52:06.032Z,4.20
2022-09-24T20:54:34.585Z,4.15
2022-09-24T20:57:04.125Z,3.95
2022-09-24T20:59:31.677Z,4.18
2022-09-24T21:02:07.539Z,4.13
2022-09-24T21:04:38.755Z,4.22
2022-09-24T21:07:13.560Z,5.90
2022-09-24T21:09:41.799Z,4.50
2022-09-24T21:12:11.761Z,4.05
2022-09-24T21:14:45.262Z,4.28
2022-09-24T21:17:13.745Z,4.88
2022-09-24T21:19:43.449Z,4.75
2022-09-24T21:22:12.348Z,7.25
2022-09-24T21:24:41.130Z,3.90
2022-09-24T21:27:11.448Z,5.75
2022-09-24T21:29:41.835Z,3.95
2022-09-24T21:32:17.945Z,4.05
2022-09-24T21:34:49.340Z,7.05
2022-09-24T21:37:17.833Z,3.88
2022-09-24T21:39:47.940Z,3.97
2022-09-24T21:42:19.987Z,3.80
2022-09-24T21:44:47.426Z,4.20
2022-09-24T21:47:16.647Z,3.47
2022-09-24T21:49:44.527Z,3.90
2022-09-24T21:52:14.164Z,5.25
2022-09-24T21:54:44.451Z,4.47
2022-09-24T21:57:14.269Z,4.38
2022-09-24T22:00:01.475Z,3.70
2022-09-24T22:02:30.130Z,4.30
2022-09-24T22:05:02.667Z,7.65
2022-09-24T22:07:32.955Z,5.28
2022-09-24T22:10:01.302Z,6.72
2022-09-24T22:12:29.943Z,4.45
2022-09-24T22:14:57.860Z,4.47
2022-09-24T22:17:28.882Z,6.72
2022-09-24T22:19:56.684Z,5.88
2022-09-24T22:22:28.749Z,4.35
2022-09-24T22:24:57.193Z,4.38
2022-09-24T22:27:25.139Z,6.68
2022-09-24T22:29:52.909Z,4.50
2022-09-24T22:32:20.855Z,4.75
2022-09-24T22:35:06.232Z,4.85
2022-09-24T22:37:34.479Z,6.05
2022-09-24T22:40:02.297Z,4.47
2022-09-24T22:42:29.559Z,5.20
2022-09-24T22:45:01.546Z,5.72
2022-09-24T22:47:29.635Z,4.90
2022-09-24T22:49:57.280Z,4.00
2022-09-24T22:52:26.825Z,5.97
2022-09-24T22:54:54.554Z,4.60
2022-09-24T22:57:22.405Z,5.57
2022-09-24T22:59:50.726Z,4.22
2022-09-24T23:02:18.163Z,5.43
2022-09-24T23:04:46.184Z,5.07
2022-09-24T23:07:16.493Z,4.30
2022-09-24T23:09:43.747Z,5.15
2022-09-24T23:12:11.000Z,7.53
2022-09-24T23:14:38.362Z,7.35
2022-09-24T23:17:05.738Z,4.90
2022-09-24T23:19:48.765Z,4.55
2022-09-24T23:22:16.960Z,7.70
2022-09-24T23:24:44.220Z,7.65
2022-09-24T23:27:11.476Z,5.45
2022-09-24T23:29:38.925Z,4.35
2022-09-24T23:32:06.381Z,4.57
2022-09-24T23:34:33.668Z,5.53
2022-09-24T23:37:00.940Z,7.85
2022-09-24T23:39:28.258Z,5.75
2022-09-24T23:41:55.569Z,7.53
2022-09-24T23:44:23.110Z,5.88
2022-09-24T23:46:50.379Z,3.97
2022-09-24T23:49:17.628Z,5.43
2022-09-24T23:51:45.080Z,4.55
2022-09-24T23:54:12.482Z,6.85
2022-09-24T23:56:39.931Z,4.85
2022-09-24T23:59:07.270Z,6.38
